sensor_id;sensor_type;location;lat;lon;timestamp;pressure;altitude;pressure_sealevel;temperature;humidity
66385;BME280;53426;55.872;37.462;2023-04-30T00:00:26;99605.81;;;5.74;62.03
66385;BME280;53426;55.872;37.462;2023-04-30T00:02:51;99609.59;;;5.70;61.77
66385;BME280;53426;55.872;37.462;2023-04-30T00:05:17;99579.97;;;5.54;61.90
66385;BME280;53426;55.872;37.462;2023-04-30T00:07:46;99604.81;;;5.62;62.97
66385;BME280;53426;55.872;37.462;2023-04-30T00:10:12;99606.41;;;5.65;62.56
66385;BME280;53426;55.872;37.462;2023-04-30T00:12:39;99587.66;;;5.57;62.73
66385;BME280;53426;55.872;37.462;2023-04-30T00:15:05;99611.88;;;5.62;62.75
66385;BME280;53426;55.872;37.462;2023-04-30T00:17:33;99619.84;;;5.60;63.13
66385;BME280;53426;55.872;37.462;2023-04-30T00:20:01;99611.28;;;5.57;63.04
66385;BME280;53426;55.872;37.462;2023-04-30T00:22:31;99614.56;;;5.46;63.31
66385;BME280;53426;55.872;37.462;2023-04-30T00:24:58;99616.94;;;5.51;63.46
66385;BME280;53426;55.872;37.462;2023-04-30T00:27:23;99620.59;;;5.48;64.07
66385;BME280;53426;55.872;37.462;2023-04-30T00:29:49;99621.59;;;5.45;63.54
66385;BME280;53426;55.872;37.462;2023-04-30T00:32:17;99621.06;;;5.40;64.29
66385;BME280;53426;55.872;37.462;2023-04-30T00:34:43;99621.91;;;5.41;65.03
66385;BME280;53426;55.872;37.462;2023-04-30T00:37:10;99624.72;;;5.38;65.47
66385;BME280;53426;55.872;37.462;2023-04-30T00:39:36;99626.09;;;5.29;65.42
66385;BME280;53426;55.872;37.462;2023-04-30T00:42:02;99626.09;;;5.29;65.60
66385;BME280;53426;55.872;37.462;2023-04-30T00:44:28;99630.63;;;5.27;65.79
66385;BME280;53426;55.872;37.462;2023-04-30T00:46:54;99624.91;;;5.21;65.93
66385;BME280;53426;55.872;37.462;2023-04-30T00:49:20;99631.56;;;5.26;65.32
66385;BME280;53426;55.872;37.462;2023-04-30T00:51:46;99635.88;;;5.27;65.65
66385;BME280;53426;55.872;37.462;2023-04-30T00:54:14;99624.69;;;5.24;66.04
66385;BME280;53426;55.872;37.462;2023-04-30T00:56:40;99629.22;;;5.22;65.77
66385;BME280;53426;55.872;37.462;2023-04-30T00:59:07;99622.06;;;5.24;65.48
66385;BME280;53426;55.872;37.462;2023-04-30T01:01:34;99617.22;;;5.18;66.01
66385;BME280;53426;55.872;37.462;2023-04-30T01:04:02;99617.88;;;5.21;65.91
66385;BME280;53426;55.872;37.462;2023-04-30T01:06:28;99598.47;;;5.10;65.35
66385;BME280;53426;55.872;37.462;2023-04-30T01:08:55;99623.97;;;5.22;65.38
66385;BME280;53426;55.872;37.462;2023-04-30T01:20:12;99628.94;;;5.12;65.98
66385;BME280;53426;55.872;37.462;2023-04-30T01:25:41;99634.28;;;5.11;65.77
66385;BME280;53426;55.872;37.462;2023-04-30T01:28:14;99625.84;;;5.05;65.94
66385;BME280;53426;55.872;37.462;2023-04-30T01:30:49;99629.78;;;5.13;65.26
66385;BME280;53426;55.872;37.462;2023-04-30T01:33:15;99632.28;;;5.14;66.15
66385;BME280;53426;55.872;37.462;2023-04-30T01:35:55;99627.91;;;5.15;66.50
66385;BME280;53426;55.872;37.462;2023-04-30T01:38:36;99621.91;;;5.13;66.28
66385;BME280;53426;55.872;37.462;2023-04-30T01:41:17;99610.44;;;4.99;65.96
66385;BME280;53426;55.872;37.462;2023-04-30T01:46:27;99629.47;;;5.03;66.08
66385;BME280;53426;55.872;37.462;2023-04-30T01:49:11;99627.41;;;5.08;66.65
66385;BME280;53426;55.872;37.462;2023-04-30T01:51:42;99631.72;;;5.09;66.00
66385;BME280;53426;55.872;37.462;2023-04-30T01:54:25;99629.09;;;5.09;65.91
66385;BME280;53426;55.872;37.462;2023-04-30T01:57:02;99630.88;;;5.09;66.64
66385;BME280;53426;55.872;37.462;2023-04-30T01:59:35;99622.66;;;5.00;66.28
66385;BME280;53426;55.872;37.462;2023-04-30T02:02:03;99625.75;;;5.07;66.76
66385;BME280;53426;55.872;37.462;2023-04-30T02:04:28;99630.31;;;5.03;67.26
66385;BME280;53426;55.872;37.462;2023-04-30T02:06:54;99591.47;;;4.80;66.72
66385;BME280;53426;55.872;37.462;2023-04-30T02:09:20;99631.09;;;5.05;66.27
66385;BME280;53426;55.872;37.462;2023-04-30T02:11:49;99601.94;;;4.96;67.02
66385;BME280;53426;55.872;37.462;2023-04-30T02:14:16;99620.59;;;5.05;66.72
66385;BME280;53426;55.872;37.462;2023-04-30T02:17:01;99626.19;;;5.14;67.22
66385;BME280;53426;55.872;37.462;2023-04-30T02:19:27;99627.72;;;5.18;66.79
66385;BME280;53426;55.872;37.462;2023-04-30T02:21:53;99596.75;;;5.09;66.88
66385;BME280;53426;55.872;37.462;2023-04-30T02:24:20;99616.81;;;5.24;67.01
66385;BME280;53426;55.872;37.462;2023-04-30T02:26:46;99612.25;;;5.27;67.19
66385;BME280;53426;55.872;37.462;2023-04-30T02:29:14;99613.75;;;5.31;66.90
66385;BME280;53426;55.872;37.462;2023-04-30T02:31:40;99605.88;;;5.31;66.87
66385;BME280;53426;55.872;37.462;2023-04-30T02:34:10;99610.00;;;5.35;67.25
66385;BME280;53426;55.872;37.462;2023-04-30T02:36:35;99601.84;;;5.40;67.18
66385;BME280;53426;55.872;37.462;2023-04-30T02:39:01;99609.31;;;5.46;66.57
66385;BME280;53426;55.872;37.462;2023-04-30T02:41:27;99602.13;;;5.50;66.75
66385;BME280;53426;55.872;37.462;2023-04-30T02:43:53;99605.47;;;5.52;66.57
66385;BME280;53426;55.872;37.462;2023-04-30T02:46:19;99600.22;;;5.52;67.25
66385;BME280;53426;55.872;37.462;2023-04-30T02:48:47;99603.41;;;5.57;66.46
66385;BME280;53426;55.872;37.462;2023-04-30T02:51:14;99598.16;;;5.57;67.37
66385;BME280;53426;55.872;37.462;2023-04-30T02:53:40;99576.03;;;5.46;67.31
66385;BME280;53426;55.872;37.462;2023-04-30T02:56:06;99597.22;;;5.58;67.21
66385;BME280;53426;55.872;37.462;2023-04-30T02:58:32;99585.31;;;5.52;67.41
66385;BME280;53426;55.872;37.462;2023-04-30T03:00:58;99586.63;;;5.59;67.18
66385;BME280;53426;55.872;37.462;2023-04-30T03:03:24;99585.78;;;5.59;67.37
66385;BME280;53426;55.872;37.462;2023-04-30T03:05:51;99591.97;;;5.72;67.42
66385;BME280;53426;55.872;37.462;2023-04-30T03:08:17;99594.59;;;5.72;67.64
66385;BME280;53426;55.872;37.462;2023-04-30T03:10:43;99596.63;;;5.81;67.58
66385;BME280;53426;55.872;37.462;2023-04-30T03:13:09;99581.78;;;5.80;67.79
66385;BME280;53426;55.872;37.462;2023-04-30T03:15:35;99593.34;;;5.92;67.60
66385;BME280;53426;55.872;37.462;2023-04-30T03:18:03;99589.38;;;5.99;66.90
66385;BME280;53426;55.872;37.462;2023-04-30T03:20:31;99585.69;;;6.01;66.72
66385;BME280;53426;55.872;37.462;2023-04-30T03:22:57;99575.19;;;6.01;66.59
66385;BME280;53426;55.872;37.462;2023-04-30T03:25:24;99594.41;;;6.16;66.85
66385;BME280;53426;55.872;37.462;2023-04-30T03:27:50;99580.63;;;6.25;66.95
66385;BME280;53426;55.872;37.462;2023-04-30T03:30:17;99576.22;;;6.25;66.42
66385;BME280;53426;55.872;37.462;2023-04-30T03:32:43;99578.59;;;6.43;66.46
66385;BME280;53426;55.872;37.462;2023-04-30T03:35:10;99571.06;;;6.63;66.46
66385;BME280;53426;55.872;37.462;2023-04-30T03:37:37;99567.41;;;7.53;64.49
66385;BME280;53426;55.872;37.462;2023-04-30T03:40:03;99559.88;;;8.78;61.02
66385;BME280;53426;55.872;37.462;2023-04-30T03:42:30;99558.19;;;9.89;58.09
66385;BME280;53426;55.872;37.462;2023-04-30T03:44:56;99549.97;;;10.67;55.12
66385;BME280;53426;55.872;37.462;2023-04-30T03:47:23;99551.75;;;11.38;53.70
66385;BME280;53426;55.872;37.462;2023-04-30T03:49:49;99537.69;;;11.87;52.62
66385;BME280;53426;55.872;37.462;2023-04-30T03:52:20;99539.13;;;12.20;51.05
66385;BME280;53426;55.872;37.462;2023-04-30T03:54:47;99530.56;;;12.55;49.93
66385;BME280;53426;55.872;37.462;2023-04-30T03:57:14;99545.94;;;12.61;48.71
66385;BME280;53426;55.872;37.462;2023-04-30T03:59:40;99546.88;;;12.89;48.67
66385;BME280;53426;55.872;37.462;2023-04-30T04:02:07;99516.09;;;12.96;48.07
66385;BME280;53426;55.872;37.462;2023-04-30T04:04:36;99533.66;;;13.26;46.83
66385;BME280;53426;55.872;37.462;2023-04-30T04:07:02;99528.50;;;13.52;46.08
66385;BME280;53426;55.872;37.462;2023-04-30T04:09:31;99512.69;;;13.23;45.87
66385;BME280;53426;55.872;37.462;2023-04-30T04:11:58;99534.16;;;13.39;45.76
66385;BME280;53426;55.872;37.462;2023-04-30T04:14:24;99536.16;;;13.27;45.70
66385;BME280;53426;55.872;37.462;2023-04-30T04:16:50;99436.41;;;12.86;45.96
66385;BME280;53426;55.872;37.462;2023-04-30T04:19:17;99537.84;;;13.83;44.90
66385;BME280;53426;55.872;37.462;2023-04-30T04:21:44;99525.63;;;14.08;43.58
66385;BME280;53426;55.872;37.462;2023-04-30T04:24:13;99534.19;;;14.29;43.34
66385;BME280;53426;55.872;37.462;2023-04-30T04:26:40;99532.97;;;14.85;42.07
66385;BME280;53426;55.872;37.462;2023-04-30T04:29:09;99523.94;;;15.03;41.16
66385;BME280;53426;55.872;37.462;2023-04-30T04:31:56;99523.09;;;15.55;41.66
66385;BME280;53426;55.872;37.462;2023-04-30T04:34:31;99533.19;;;15.93;40.01
66385;BME280;53426;55.872;37.462;2023-04-30T04:36:58;99530.31;;;15.78;40.13
66385;BME280;53426;55.872;37.462;2023-04-30T04:39:23;99517.31;;;15.75;40.39
66385;BME280;53426;55.872;37.462;2023-04-30T04:41:50;99514.53;;;16.01;40.05
66385;BME280;53426;55.872;37.462;2023-04-30T04:44:15;99521.75;;;16.49;39.04
66385;BME280;53426;55.872;37.462;2023-04-30T04:46:43;99522.59;;;16.33;39.75
66385;BME280;53426;55.872;37.462;2023-04-30T04:49:11;99519.63;;;16.61;39.59
66385;BME280;53426;55.872;37.462;2023-04-30T04:51:39;99517.28;;;16.90;38.72
66385;BME280;53426;55.872;37.462;2023-04-30T04:54:10;99515.94;;;16.70;38.46
66385;BME280;53426;55.872;37.462;2023-04-30T04:56:38;99508.06;;;16.20;38.83
66385;BME280;53426;55.872;37.462;2023-04-30T04:59:05;99506.53;;;16.09;39.10
66385;BME280;53426;55.872;37.462;2023-04-30T05:01:32;99513.00;;;15.99;39.15
66385;BME280;53426;55.872;37.462;2023-04-30T05:03:58;99492.16;;;16.10;38.76
66385;BME280;53426;55.872;37.462;2023-04-30T05:06:24;99517.94;;;16.84;37.85
66385;BME280;53426;55.872;37.462;2023-04-30T05:08:50;99510.56;;;16.94;37.07
66385;BME280;53426;55.872;37.462;2023-04-30T05:11:16;99510.25;;;16.89;37.19
66385;BME280;53426;55.872;37.462;2023-04-30T05:13:44;99503.97;;;17.21;36.57
66385;BME280;53426;55.872;37.462;2023-04-30T05:16:10;99507.66;;;17.20;36.05
66385;BME280;53426;55.872;37.462;2023-04-30T05:18:36;99515.16;;;17.25;36.43
66385;BME280;53426;55.872;37.462;2023-04-30T05:21:02;99506.19;;;17.09;35.26
66385;BME280;53426;55.872;37.462;2023-04-30T05:23:28;99517.97;;;17.39;34.75
66385;BME280;53426;55.872;37.462;2023-04-30T05:25:54;99501.50;;;17.58;33.33
66385;BME280;53426;55.872;37.462;2023-04-30T05:28:21;99497.69;;;17.06;34.64
66385;BME280;53426;55.872;37.462;2023-04-30T05:30:47;99513.09;;;17.43;34.69
66385;BME280;53426;55.872;37.462;2023-04-30T05:33:13;99509.44;;;18.06;33.49
66385;BME280;53426;55.872;37.462;2023-04-30T05:35:39;99499.41;;;18.76;32.43
66385;BME280;53426;55.872;37.462;2023-04-30T05:38:05;99515.19;;;19.23;31.74
66385;BME280;53426;55.872;37.462;2023-04-30T05:40:31;99510.44;;;18.96;32.13
66385;BME280;53426;55.872;37.462;2023-04-30T05:42:58;99511.88;;;19.50;31.19
66385;BME280;53426;55.872;37.462;2023-04-30T05:45:24;99504.53;;;19.59;30.73
66385;BME280;53426;55.872;37.462;2023-04-30T05:47:50;99506.56;;;19.28;31.56
66385;BME280;53426;55.872;37.462;2023-04-30T05:50:15;99491.44;;;18.83;31.56
66385;BME280;53426;55.872;37.462;2023-04-30T05:52:41;99507.16;;;18.48;31.68
66385;BME280;53426;55.872;37.462;2023-04-30T05:55:08;99493.75;;;18.71;31.67
66385;BME280;53426;55.872;37.462;2023-04-30T05:57:34;99488.75;;;18.68;31.78
66385;BME280;53426;55.872;37.462;2023-04-30T06:00:00;99505.44;;;18.93;31.78
66385;BME280;53426;55.872;37.462;2023-04-30T06:02:26;99504.41;;;18.94;31.19
66385;BME280;53426;55.872;37.462;2023-04-30T06:04:53;99495.91;;;18.30;32.24
66385;BME280;53426;55.872;37.462;2023-04-30T06:07:18;99500.19;;;18.39;32.06
66385;BME280;53426;55.872;37.462;2023-04-30T06:09:44;99496.38;;;18.56;31.40
66385;BME280;53426;55.872;37.462;2023-04-30T06:12:10;99501.69;;;18.19;31.23
66385;BME280;53426;55.872;37.462;2023-04-30T06:14:36;99507.34;;;18.47;31.24
66385;BME280;53426;55.872;37.462;2023-04-30T06:17:02;99491.44;;;18.83;30.58
66385;BME280;53426;55.872;37.462;2023-04-30T06:19:28;99485.44;;;18.95;30.14
66385;BME280;53426;55.872;37.462;2023-04-30T06:21:55;99497.44;;;18.47;31.56
66385;BME280;53426;55.872;37.462;2023-04-30T06:24:21;99516.69;;;18.28;31.23
66385;BME280;53426;55.872;37.462;2023-04-30T06:26:47;99521.00;;;18.06;31.35
66385;BME280;53426;55.872;37.462;2023-04-30T06:29:12;99512.50;;;18.03;30.88
66385;BME280;53426;55.872;37.462;2023-04-30T06:31:41;99526.34;;;17.83;30.89
66385;BME280;53426;55.872;37.462;2023-04-30T06:34:15;99517.94;;;16.84;32.57
66385;BME280;53426;55.872;37.462;2023-04-30T06:37:43;99484.56;;;17.19;31.85
66385;BME280;53426;55.872;37.462;2023-04-30T06:40:09;99503.03;;;16.98;31.90
66385;BME280;53426;55.872;37.462;2023-04-30T06:42:44;99460.13;;;16.43;32.87
66385;BME280;53426;55.872;37.462;2023-04-30T06:45:30;99429.06;;;16.50;32.98
66385;BME280;53426;55.872;37.462;2023-04-30T06:47:56;99389.50;;;16.29;31.22
66385;BME280;53426;55.872;37.462;2023-04-30T06:50:25;99508.28;;;17.30;31.41
66385;BME280;53426;55.872;37.462;2023-04-30T06:52:51;99465.63;;;17.76;30.46
66385;BME280;53426;55.872;37.462;2023-04-30T06:55:17;99505.22;;;17.88;30.31
66385;BME280;53426;55.872;37.462;2023-04-30T06:57:46;99476.44;;;18.59;29.20
66385;BME280;53426;55.872;37.462;2023-04-30T07:00:12;99495.84;;;18.98;28.97
66385;BME280;53426;55.872;37.462;2023-04-30T07:02:41;99492.63;;;18.65;29.96
66385;BME280;53426;55.872;37.462;2023-04-30T07:05:08;99488.44;;;18.63;28.45
66385;BME280;53426;55.872;37.462;2023-04-30T07:07:36;99472.78;;;17.83;29.51
66385;BME280;53426;55.872;37.462;2023-04-30T07:10:02;99473.66;;;17.76;28.36
66385;BME280;53426;55.872;37.462;2023-04-30T07:12:30;99446.34;;;17.02;29.76
66385;BME280;53426;55.872;37.462;2023-04-30T07:14:56;99477.34;;;16.64;29.70
66385;BME280;53426;55.872;37.462;2023-04-30T07:17:23;99460.81;;;16.28;30.05
66385;BME280;53426;55.872;37.462;2023-04-30T07:19:49;99461.47;;;16.79;29.93
66385;BME280;53426;55.872;37.462;2023-04-30T07:22:15;99459.91;;;17.01;29.33
66385;BME280;53426;55.872;37.462;2023-04-30T07:24:43;99464.28;;;16.78;29.23
66385;BME280;53426;55.872;37.462;2023-04-30T07:27:15;99443.22;;;16.91;29.44
66385;BME280;53426;55.872;37.462;2023-04-30T07:29:42;99435.00;;;17.00;28.96
66385;BME280;53426;55.872;37.462;2023-04-30T07:32:11;99454.81;;;17.22;28.76
66385;BME280;53426;55.872;37.462;2023-04-30T07:34:37;99436.94;;;17.14;28.99
66385;BME280;53426;55.872;37.462;2023-04-30T07:37:04;99432.41;;;18.08;27.82
66385;BME280;53426;55.872;37.462;2023-04-30T07:39:30;99459.97;;;17.71;27.51
66385;BME280;53426;55.872;37.462;2023-04-30T07:41:56;99438.50;;;17.01;27.81
66385;BME280;53426;55.872;37.462;2023-04-30T07:44:24;99434.25;;;16.35;29.24
66385;BME280;53426;55.872;37.462;2023-04-30T07:46:54;99422.19;;;16.71;28.58
66385;BME280;53426;55.872;37.462;2023-04-30T07:49:20;99420.88;;;16.27;29.07
66385;BME280;53426;55.872;37.462;2023-04-30T07:51:48;99420.75;;;15.38;29.58
66385;BME280;53426;55.872;37.462;2023-04-30T07:54:17;99406.69;;;14.86;30.96
66385;BME280;53426;55.872;37.462;2023-04-30T07:56:44;99420.25;;;14.41;31.56
66385;BME280;53426;55.872;37.462;2023-04-30T07:59:15;99403.75;;;14.37;31.07
66385;BME280;53426;55.872;37.462;2023-04-30T08:01:42;99403.44;;;14.40;30.87
66385;BME280;53426;55.872;37.462;2023-04-30T08:04:11;99385.28;;;14.18;31.04
66385;BME280;53426;55.872;37.462;2023-04-30T08:06:39;99400.88;;;14.13;30.67
66385;BME280;53426;55.872;37.462;2023-04-30T08:09:05;99387.16;;;13.82;31.62
66385;BME280;53426;55.872;37.462;2023-04-30T08:11:37;99373.47;;;13.59;32.52
66385;BME280;53426;55.872;37.462;2023-04-30T08:14:05;99354.56;;;13.62;32.30
66385;BME280;53426;55.872;37.462;2023-04-30T08:16:32;99369.69;;;13.79;32.45
66385;BME280;53426;55.872;37.462;2023-04-30T08:19:01;99352.91;;;13.87;32.98
66385;BME280;53426;55.872;37.462;2023-04-30T08:21:29;99354.78;;;14.12;32.82
66385;BME280;53426;55.872;37.462;2023-04-30T08:23:58;99351.41;;;13.85;32.98
66385;BME280;53426;55.872;37.462;2023-04-30T08:26:25;99350.13;;;13.89;33.18
66385;BME280;53426;55.872;37.462;2023-04-30T08:28:51;99346.34;;;13.73;33.25
66385;BME280;53426;55.872;37.462;2023-04-30T08:31:18;99350.06;;;13.45;34.55
66385;BME280;53426;55.872;37.462;2023-04-30T08:33:44;99326.66;;;13.31;33.97
66385;BME280;53426;55.872;37.462;2023-04-30T08:36:13;99336.44;;;13.13;33.86
66385;BME280;53426;55.872;37.462;2023-04-30T08:38:40;99309.25;;;12.91;33.98
66385;BME280;53426;55.872;37.462;2023-04-30T08:41:13;99313.06;;;13.07;33.70
66385;BME280;53426;55.872;37.462;2023-04-30T08:43:42;99315.72;;;13.07;33.77
66385;BME280;53426;55.872;37.462;2023-04-30T08:46:10;99301.81;;;12.95;33.60
66385;BME280;53426;55.872;37.462;2023-04-30T08:48:40;99305.53;;;13.12;33.01
66385;BME280;53426;55.872;37.462;2023-04-30T08:51:06;99301.41;;;13.17;33.30
66385;BME280;53426;55.872;37.462;2023-04-30T08:53:36;99298.59;;;13.36;32.64
66385;BME280;53426;55.872;37.462;2023-04-30T08:56:03;99295.88;;;13.28;33.05
66385;BME280;53426;55.872;37.462;2023-04-30T08:58:30;99298.84;;;13.25;32.96
66385;BME280;53426;55.872;37.462;2023-04-30T09:00:57;99302.13;;;13.19;33.26
66385;BME280;53426;55.872;37.462;2023-04-30T09:03:24;99284.63;;;13.17;32.86
66385;BME280;53426;55.872;37.462;2023-04-30T09:05:52;99280.28;;;13.16;33.09
66385;BME280;53426;55.872;37.462;2023-04-30T09:08:40;99286.69;;;13.40;33.20
66385;BME280;53426;55.872;37.462;2023-04-30T09:11:27;99262.72;;;13.05;33.36
66385;BME280;53426;55.872;37.462;2023-04-30T09:13:57;99263.59;;;12.78;33.87
66385;BME280;53426;55.872;37.462;2023-04-30T09:16:24;99268.28;;;12.67;34.85
66385;BME280;53426;55.872;37.462;2023-04-30T09:18:50;99247.66;;;12.78;34.76
66385;BME280;53426;55.872;37.462;2023-04-30T09:21:37;99214.84;;;12.52;34.88
66385;BME280;53426;55.872;37.462;2023-04-30T09:24:04;99256.47;;;12.79;35.40
66385;BME280;53426;55.872;37.462;2023-04-30T09:26:37;99243.91;;;12.71;35.00
66385;BME280;53426;55.872;37.462;2023-04-30T09:29:06;99244.69;;;12.64;34.96
66385;BME280;53426;55.872;37.462;2023-04-30T09:31:34;99225.16;;;12.55;35.25
66385;BME280;53426;55.872;37.462;2023-04-30T09:38:39;99225.03;;;12.74;36.18
66385;BME280;53426;55.872;37.462;2023-04-30T09:41:24;99100.28;;;12.02;36.18
66385;BME280;53426;55.872;37.462;2023-04-30T09:44:28;99161.72;;;12.52;36.44
66385;BME280;53426;55.872;37.462;2023-04-30T09:47:00;99168.88;;;12.69;36.99
66385;BME280;53426;55.872;37.462;2023-04-30T09:49:41;99135.03;;;12.53;36.34
66385;BME280;53426;55.872;37.462;2023-04-30T09:52:51;99199.66;;;13.25;36.48
66385;BME280;53426;55.872;37.462;2023-04-30T09:55:21;99154.91;;;13.03;36.40
66385;BME280;53426;55.872;37.462;2023-04-30T09:57:51;99106.81;;;12.70;35.94
66385;BME280;53426;55.872;37.462;2023-04-30T10:00:17;99127.66;;;12.47;36.74
66385;BME280;53426;55.872;37.462;2023-04-30T10:03:13;99189.00;;;13.07;36.81
66385;BME280;53426;55.872;37.462;2023-04-30T10:05:43;99193.47;;;13.07;36.86
66385;BME280;53426;55.872;37.462;2023-04-30T10:11:19;99193.72;;;13.13;36.62
66385;BME280;53426;55.872;37.462;2023-04-30T10:14:02;99189.97;;;13.06;36.94
66385;BME280;53426;55.872;37.462;2023-04-30T10:16:33;99187.47;;;13.05;37.11
66385;BME280;53426;55.872;37.462;2023-04-30T10:19:07;99193.25;;;13.18;36.98
66385;BME280;53426;55.872;37.462;2023-04-30T10:21:39;99187.25;;;13.16;36.73
66385;BME280;53426;55.872;37.462;2023-04-30T10:24:05;99182.31;;;13.03;36.46
66385;BME280;53426;55.872;37.462;2023-04-30T10:26:31;99178.72;;;12.94;36.59
66385;BME280;53426;55.872;37.462;2023-04-30T10:28:59;99183.91;;;12.96;36.22
66385;BME280;53426;55.872;37.462;2023-04-30T10:31:27;99178.50;;;12.88;35.87
66385;BME280;53426;55.872;37.462;2023-04-30T10:37:04;99173.03;;;12.54;36.36
66385;BME280;53426;55.872;37.462;2023-04-30T10:39:34;99174.16;;;12.51;37.36
66385;BME280;53426;55.872;37.462;2023-04-30T10:42:04;99158.09;;;12.53;35.87
66385;BME280;53426;55.872;37.462;2023-04-30T10:44:32;99186.63;;;12.69;36.38
66385;BME280;53426;55.872;37.462;2023-04-30T10:47:00;99205.53;;;12.83;36.42
66385;BME280;53426;55.872;37.462;2023-04-30T10:49:27;99198.72;;;12.81;36.18
66385;BME280;53426;55.872;37.462;2023-04-30T10:52:03;99188.53;;;12.58;36.69
66385;BME280;53426;55.872;37.462;2023-04-30T10:54:35;99196.03;;;12.63;36.57
66385;BME280;53426;55.872;37.462;2023-04-30T10:57:12;99186.50;;;12.70;36.47
66385;BME280;53426;55.872;37.462;2023-04-30T10:59:53;99159.63;;;12.73;36.46
66385;BME280;53426;55.872;37.462;2023-04-30T11:10:59;99126.34;;;12.34;36.60
66385;BME280;53426;55.872;37.462;2023-04-30T11:13:26;99125.75;;;12.40;36.57
66385;BME280;53426;55.872;37.462;2023-04-30T11:15:53;99143.38;;;12.58;37.16
66385;BME280;53426;55.872;37.462;2023-04-30T11:18:19;99178.34;;;12.72;37.02
66385;BME280;53426;55.872;37.462;2023-04-30T11:20:49;99174.13;;;12.96;37.26
66385;BME280;53426;55.872;37.462;2023-04-30T11:23:26;99185.41;;;12.98;36.43
66385;BME280;53426;55.872;37.462;2023-04-30T11:25:54;99112.47;;;12.57;36.15
66385;BME280;53426;55.872;37.462;2023-04-30T11:28:27;99187.25;;;13.16;36.45
66385;BME280;53426;55.872;37.462;2023-04-30T11:30:55;99173.09;;;13.59;35.50
66385;BME280;53426;55.872;37.462;2023-04-30T11:37:32;99165.50;;;13.98;35.63
66385;BME280;53426;55.872;37.462;2023-04-30T11:40:08;99121.94;;;13.65;35.87
66385;BME280;53426;55.872;37.462;2023-04-30T11:42:36;99136.69;;;13.59;35.99
66385;BME280;53426;55.872;37.462;2023-04-30T11:51:54;99103.59;;;13.54;35.21
66385;BME280;53426;55.872;37.462;2023-04-30T11:54:20;99042.72;;;13.17;35.47
66385;BME280;53426;55.872;37.462;2023-04-30T11:56:47;99102.88;;;13.44;35.43
66385;BME280;53426;55.872;37.462;2023-04-30T11:59:17;99081.44;;;13.45;35.54
66385;BME280;53426;55.872;37.462;2023-04-30T12:01:43;99096.53;;;13.70;35.70
66385;BME280;53426;55.872;37.462;2023-04-30T12:04:09;99073.59;;;13.35;35.22
66385;BME280;53426;55.872;37.462;2023-04-30T12:06:38;99089.31;;;13.29;35.73
66385;BME280;53426;55.872;37.462;2023-04-30T12:09:06;99017.22;;;12.80;35.87
66385;BME280;53426;55.872;37.462;2023-04-30T12:11:34;99095.16;;;13.32;35.64
66385;BME280;53426;55.872;37.462;2023-04-30T12:14:02;99086.34;;;13.32;35.71
66385;BME280;53426;55.872;37.462;2023-04-30T12:19:04;99077.53;;;13.57;34.93
66385;BME280;53426;55.872;37.462;2023-04-30T12:21:30;99094.34;;;13.66;35.18
66385;BME280;53426;55.872;37.462;2023-04-30T12:23:55;99089.84;;;13.66;35.36
66385;BME280;53426;55.872;37.462;2023-04-30T12:26:22;99076.06;;;13.71;34.97
66385;BME280;53426;55.872;37.462;2023-04-30T12:28:50;99082.22;;;13.71;35.91
66385;BME280;53426;55.872;37.462;2023-04-30T12:31:17;99083.31;;;13.53;36.09
66385;BME280;53426;55.872;37.462;2023-04-30T12:33:52;99077.47;;;13.49;35.73
66385;BME280;53426;55.872;37.462;2023-04-30T12:36:19;99080.28;;;13.22;36.05
66385;BME280;53426;55.872;37.462;2023-04-30T12:39:00;99082.34;;;13.10;36.89
66385;BME280;53426;55.872;37.462;2023-04-30T12:41:28;99067.00;;;12.78;36.90
66385;BME280;53426;55.872;37.462;2023-04-30T12:44:15;99079.09;;;12.98;37.25
66385;BME280;53426;55.872;37.462;2023-04-30T12:46:41;99082.22;;;12.94;36.60
66385;BME280;53426;55.872;37.462;2023-04-30T12:49:09;99095.88;;;12.99;37.02
66385;BME280;53426;55.872;37.462;2023-04-30T12:51:35;99077.00;;;12.84;36.93
66385;BME280;53426;55.872;37.462;2023-04-30T12:54:01;99079.44;;;12.78;37.61
66385;BME280;53426;55.872;37.462;2023-04-30T12:56:28;99082.53;;;12.47;37.75
66385;BME280;53426;55.872;37.462;2023-04-30T12:58:56;99090.72;;;12.54;37.85
66385;BME280;53426;55.872;37.462;2023-04-30T13:01:23;99060.16;;;12.32;38.59
66385;BME280;53426;55.872;37.462;2023-04-30T13:03:51;99080.69;;;12.48;37.73
66385;BME280;53426;55.872;37.462;2023-04-30T13:06:20;99082.19;;;12.50;37.77
66385;BME280;53426;55.872;37.462;2023-04-30T13:08:46;99068.47;;;12.55;38.69
66385;BME280;53426;55.872;37.462;2023-04-30T13:11:12;99066.03;;;12.62;37.60
66385;BME280;53426;55.872;37.462;2023-04-30T13:13:38;99059.28;;;12.67;38.17
66385;BME280;53426;55.872;37.462;2023-04-30T13:16:04;99048.38;;;12.52;38.76
66385;BME280;53426;55.872;37.462;2023-04-30T13:18:31;99038.06;;;12.32;38.86
66385;BME280;53426;55.872;37.462;2023-04-30T13:20:57;99045.56;;;12.36;39.01
66385;BME280;53426;55.872;37.462;2023-04-30T13:23:31;99054.75;;;12.42;39.28
66385;BME280;53426;55.872;37.462;2023-04-30T13:25:57;99032.81;;;12.22;39.04
66385;BME280;53426;55.872;37.462;2023-04-30T13:28:24;99065.06;;;12.45;39.54
66385;BME280;53426;55.872;37.462;2023-04-30T13:30:51;99060.06;;;12.42;38.89
66385;BME280;53426;55.872;37.462;2023-04-30T13:33:21;99061.41;;;12.28;39.46
66385;BME280;53426;55.872;37.462;2023-04-30T13:35:48;99035.09;;;12.17;39.82
66385;BME280;53426;55.872;37.462;2023-04-30T13:38:15;99064.84;;;12.21;39.78
66385;BME280;53426;55.872;37.462;2023-04-30T13:40:44;99022.22;;;12.04;39.68
66385;BME280;53426;55.872;37.462;2023-04-30T13:43:09;99000.50;;;11.91;40.40
66385;BME280;53426;55.872;37.462;2023-04-30T13:45:36;99043.28;;;12.06;40.63
66385;BME280;53426;55.872;37.462;2023-04-30T13:51:22;99030.84;;;12.06;40.70